sensor_id;sensor_type;location;lat;lon;timestamp;temperature;humidity
3172;DHT22;1597;51.572;6.992;2023-08-21T00:00:28;21.00;58.90
3172;DHT22;1597;51.572;6.992;2023-08-21T00:02:54;21.10;56.70
3172;DHT22;1597;51.572;6.992;2023-08-21T00:05:20;21.00;50.80
3172;DHT22;1597;51.572;6.992;2023-08-21T00:07:45;21.00;51.40
3172;DHT22;1597;51.572;6.992;2023-08-21T00:10:16;21.00;48.70
3172;DHT22;1597;51.572;6.992;2023-08-21T00:12:42;21.00;45.50
3172;DHT22;1597;51.572;6.992;2023-08-21T00:15:08;21.00;45.30
3172;DHT22;1597;51.572;6.992;2023-08-21T00:17:35;21.10;42.00
3172;DHT22;1597;51.572;6.992;2023-08-21T00:20:01;21.10;32.30
3172;DHT22;1597;51.572;6.992;2023-08-21T00:22:28;21.20;29.80
3172;DHT22;1597;51.572;6.992;2023-08-21T00:24:53;21.20;28.10
3172;DHT22;1597;51.572;6.992;2023-08-21T00:27:19;21.30;25.20
3172;DHT22;1597;51.572;6.992;2023-08-21T00:29:45;21.30;26.20
3172;DHT22;1597;51.572;6.992;2023-08-21T00:32:11;21.30;26.30
3172;DHT22;1597;51.572;6.992;2023-08-21T00:34:38;21.30;24.30
3172;DHT22;1597;51.572;6.992;2023-08-21T00:37:03;21.40;22.90
3172;DHT22;1597;51.572;6.992;2023-08-21T00:39:29;21.30;21.00
3172;DHT22;1597;51.572;6.992;2023-08-21T00:41:55;21.30;16.10
3172;DHT22;1597;51.572;6.992;2023-08-21T00:44:21;21.30;14.60
3172;DHT22;1597;51.572;6.992;2023-08-21T00:46:47;21.30;13.20
3172;DHT22;1597;51.572;6.992;2023-08-21T00:49:14;21.30;12.00
3172;DHT22;1597;51.572;6.992;2023-08-21T00:51:39;21.30;11.60
3172;DHT22;1597;51.572;6.992;2023-08-21T00:54:05;21.30;12.80
3172;DHT22;1597;51.572;6.992;2023-08-21T00:56:31;21.30;13.90
3172;DHT22;1597;51.572;6.992;2023-08-21T00:58:57;21.30;15.00
3172;DHT22;1597;51.572;6.992;2023-08-21T01:01:24;21.30;14.30
3172;DHT22;1597;51.572;6.992;2023-08-21T01:03:51;21.20;13.20
3172;DHT22;1597;51.572;6.992;2023-08-21T01:06:18;21.20;12.60
3172;DHT22;1597;51.572;6.992;2023-08-21T01:09:00;21.20;8.20
3172;DHT22;1597;51.572;6.992;2023-08-21T01:11:43;21.20;7.40
3172;DHT22;1597;51.572;6.992;2023-08-21T01:16:58;21.20;7.20
3172;DHT22;1597;51.572;6.992;2023-08-21T01:19:36;21.20;6.50
3172;DHT22;1597;51.572;6.992;2023-08-21T01:22:04;21.20;7.50
3172;DHT22;1597;51.572;6.992;2023-08-21T01:24:29;21.20;8.00
3172;DHT22;1597;51.572;6.992;2023-08-21T01:26:55;21.30;8.60
3172;DHT22;1597;51.572;6.992;2023-08-21T01:29:21;21.20;8.10
3172;DHT22;1597;51.572;6.992;2023-08-21T01:31:57;21.20;7.10
3172;DHT22;1597;51.572;6.992;2023-08-21T01:34:37;21.20;7.60
3172;DHT22;1597;51.572;6.992;2023-08-21T01:37:04;21.20;6.10
3172;DHT22;1597;51.572;6.992;2023-08-21T01:39:31;21.20;6.40
3172;DHT22;1597;51.572;6.992;2023-08-21T01:41:58;21.30;6.70
3172;DHT22;1597;51.572;6.992;2023-08-21T01:44:24;21.30;5.30
3172;DHT22;1597;51.572;6.992;2023-08-21T01:46:50;21.20;7.10
3172;DHT22;1597;51.572;6.992;2023-08-21T01:49:15;21.20;7.40
3172;DHT22;1597;51.572;6.992;2023-08-21T01:51:43;21.10;7.60
3172;DHT22;1597;51.572;6.992;2023-08-21T01:54:09;21.10;9.00
3172;DHT22;1597;51.572;6.992;2023-08-21T01:56:35;21.10;10.60
3172;DHT22;1597;51.572;6.992;2023-08-21T01:59:02;21.10;11.90
3172;DHT22;1597;51.572;6.992;2023-08-21T02:01:29;21.10;11.40
3172;DHT22;1597;51.572;6.992;2023-08-21T02:03:55;21.10;10.30
3172;DHT22;1597;51.572;6.992;2023-08-21T02:06:21;21.10;7.70
3172;DHT22;1597;51.572;6.992;2023-08-21T02:08:47;21.10;7.20
3172;DHT22;1597;51.572;6.992;2023-08-21T02:11:12;21.10;8.00
3172;DHT22;1597;51.572;6.992;2023-08-21T02:13:38;21.10;7.60
3172;DHT22;1597;51.572;6.992;2023-08-21T02:16:04;21.10;7.10
3172;DHT22;1597;51.572;6.992;2023-08-21T02:18:30;21.10;6.40
3172;DHT22;1597;51.572;6.992;2023-08-21T02:20:56;21.10;7.80
3172;DHT22;1597;51.572;6.992;2023-08-21T02:23:21;21.00;8.80
3172;DHT22;1597;51.572;6.992;2023-08-21T02:25:49;21.00;9.50
3172;DHT22;1597;51.572;6.992;2023-08-21T02:28:15;20.90;11.70
3172;DHT22;1597;51.572;6.992;2023-08-21T02:30:41;20.90;13.60
3172;DHT22;1597;51.572;6.992;2023-08-21T02:33:07;20.80;13.80
3172;DHT22;1597;51.572;6.992;2023-08-21T02:35:33;20.80;14.80
3172;DHT22;1597;51.572;6.992;2023-08-21T02:37:59;20.70;17.00
3172;DHT22;1597;51.572;6.992;2023-08-21T02:40:25;20.70;20.10
3172;DHT22;1597;51.572;6.992;2023-08-21T02:42:51;20.60;26.40
3172;DHT22;1597;51.572;6.992;2023-08-21T02:45:17;20.50;30.80
3172;DHT22;1597;51.572;6.992;2023-08-21T02:47:44;20.40;34.10
3172;DHT22;1597;51.572;6.992;2023-08-21T02:50:10;20.40;36.60
3172;DHT22;1597;51.572;6.992;2023-08-21T02:52:36;20.30;35.70
3172;DHT22;1597;51.572;6.992;2023-08-21T02:55:03;20.30;33.80
3172;DHT22;1597;51.572;6.992;2023-08-21T02:57:30;20.30;31.70
3172;DHT22;1597;51.572;6.992;2023-08-21T02:59:56;20.40;28.00
3172;DHT22;1597;51.572;6.992;2023-08-21T03:02:22;20.40;25.50
3172;DHT22;1597;51.572;6.992;2023-08-21T03:04:49;20.40;23.80
3172;DHT22;1597;51.572;6.992;2023-08-21T03:07:15;20.50;21.90
3172;DHT22;1597;51.572;6.992;2023-08-21T03:09:42;20.50;21.50
3172;DHT22;1597;51.572;6.992;2023-08-21T03:12:10;20.50;21.50
3172;DHT22;1597;51.572;6.992;2023-08-21T03:14:36;20.50;22.00
3172;DHT22;1597;51.572;6.992;2023-08-21T03:17:01;20.60;22.50
3172;DHT22;1597;51.572;6.992;2023-08-21T03:19:27;20.60;23.40
3172;DHT22;1597;51.572;6.992;2023-08-21T03:21:53;20.60;22.40
3172;DHT22;1597;51.572;6.992;2023-08-21T03:24:19;20.70;20.90
3172;DHT22;1597;51.572;6.992;2023-08-21T03:26:44;20.70;20.40
3172;DHT22;1597;51.572;6.992;2023-08-21T03:29:10;20.70;21.20
3172;DHT22;1597;51.572;6.992;2023-08-21T03:31:36;20.60;20.50
3172;DHT22;1597;51.572;6.992;2023-08-21T03:34:02;20.60;19.40
3172;DHT22;1597;51.572;6.992;2023-08-21T03:36:28;20.60;19.70
3172;DHT22;1597;51.572;6.992;2023-08-21T03:38:58;20.60;18.40
3172;DHT22;1597;51.572;6.992;2023-08-21T03:41:24;20.50;19.00
3172;DHT22;1597;51.572;6.992;2023-08-21T03:43:50;20.50;20.80
3172;DHT22;1597;51.572;6.992;2023-08-21T03:46:16;20.50;19.10
3172;DHT22;1597;51.572;6.992;2023-08-21T03:48:41;20.40;19.00
3172;DHT22;1597;51.572;6.992;2023-08-21T03:51:07;20.50;19.60
3172;DHT22;1597;51.572;6.992;2023-08-21T03:53:33;20.40;20.70
3172;DHT22;1597;51.572;6.992;2023-08-21T03:55:59;20.40;22.30
3172;DHT22;1597;51.572;6.992;2023-08-21T03:58:25;20.40;21.70
3172;DHT22;1597;51.572;6.992;2023-08-21T04:00:52;20.30;22.40
3172;DHT22;1597;51.572;6.992;2023-08-21T04:03:19;20.20;23.20
3172;DHT22;1597;51.572;6.992;2023-08-21T04:05:45;20.30;24.20
3172;DHT22;1597;51.572;6.992;2023-08-21T04:08:11;20.40;22.80
3172;DHT22;1597;51.572;6.992;2023-08-21T04:10:37;20.40;21.50
3172;DHT22;1597;51.572;6.992;2023-08-21T04:13:04;20.40;21.80
3172;DHT22;1597;51.572;6.992;2023-08-21T04:15:31;20.50;22.60
3172;DHT22;1597;51.572;6.992;2023-08-21T04:17:57;20.30;24.00
3172;DHT22;1597;51.572;6.992;2023-08-21T04:20:23;20.30;25.50
3172;DHT22;1597;51.572;6.992;2023-08-21T04:22:49;20.30;26.40
3172;DHT22;1597;51.572;6.992;2023-08-21T04:25:15;20.30;27.40
3172;DHT22;1597;51.572;6.992;2023-08-21T04:27:41;20.20;28.00
3172;DHT22;1597;51.572;6.992;2023-08-21T04:30:08;20.20;30.00
3172;DHT22;1597;51.572;6.992;2023-08-21T04:32:35;20.10;30.20
3172;DHT22;1597;51.572;6.992;2023-08-21T04:35:01;20.10;32.20
3172;DHT22;1597;51.572;6.992;2023-08-21T04:37:27;20.10;32.90
3172;DHT22;1597;51.572;6.992;2023-08-21T04:39:54;20.20;33.90
3172;DHT22;1597;51.572;6.992;2023-08-21T04:42:20;20.20;34.00
3172;DHT22;1597;51.572;6.992;2023-08-21T04:44:46;20.20;35.30
3172;DHT22;1597;51.572;6.992;2023-08-21T04:47:25;20.20;36.40
3172;DHT22;1597;51.572;6.992;2023-08-21T04:49:52;20.20;38.10
3172;DHT22;1597;51.572;6.992;2023-08-21T04:52:19;20.20;37.50
3172;DHT22;1597;51.572;6.992;2023-08-21T04:54:47;20.10;38.50
3172;DHT22;1597;51.572;6.992;2023-08-21T04:57:14;20.10;40.10
3172;DHT22;1597;51.572;6.992;2023-08-21T04:59:40;20.10;40.80
3172;DHT22;1597;51.572;6.992;2023-08-21T05:02:06;20.10;44.00
3172;DHT22;1597;51.572;6.992;2023-08-21T05:04:33;20.00;48.90
3172;DHT22;1597;51.572;6.992;2023-08-21T05:07:00;20.00;48.40
3172;DHT22;1597;51.572;6.992;2023-08-21T05:09:26;20.00;49.20
3172;DHT22;1597;51.572;6.992;2023-08-21T05:11:53;20.00;51.10
3172;DHT22;1597;51.572;6.992;2023-08-21T05:14:20;20.00;52.70
3172;DHT22;1597;51.572;6.992;2023-08-21T05:16:46;20.00;53.70
3172;DHT22;1597;51.572;6.992;2023-08-21T05:19:12;20.00;54.70
3172;DHT22;1597;51.572;6.992;2023-08-21T05:21:38;20.00;57.60
3172;DHT22;1597;51.572;6.992;2023-08-21T05:24:03;20.00;58.30
3172;DHT22;1597;51.572;6.992;2023-08-21T05:26:29;20.00;58.10
3172;DHT22;1597;51.572;6.992;2023-08-21T05:28:55;20.00;57.60
3172;DHT22;1597;51.572;6.992;2023-08-21T05:31:21;20.00;55.30
3172;DHT22;1597;51.572;6.992;2023-08-21T05:33:47;20.00;55.70
3172;DHT22;1597;51.572;6.992;2023-08-21T05:36:13;20.00;53.50
3172;DHT22;1597;51.572;6.992;2023-08-21T05:38:38;20.10;54.10
3172;DHT22;1597;51.572;6.992;2023-08-21T05:41:04;20.00;52.70
3172;DHT22;1597;51.572;6.992;2023-08-21T05:43:30;20.00;53.40
3172;DHT22;1597;51.572;6.992;2023-08-21T05:45:56;20.00;60.90
3172;DHT22;1597;51.572;6.992;2023-08-21T05:48:22;20.10;60.40
3172;DHT22;1597;51.572;6.992;2023-08-21T05:50:53;20.10;59.90
3172;DHT22;1597;51.572;6.992;2023-08-21T05:53:19;20.10;59.80
3172;DHT22;1597;51.572;6.992;2023-08-21T05:55:45;20.20;60.30
3172;DHT22;1597;51.572;6.992;2023-08-21T05:58:11;20.20;62.20
3172;DHT22;1597;51.572;6.992;2023-08-21T06:00:38;20.20;62.80
3172;DHT22;1597;51.572;6.992;2023-08-21T06:03:04;20.20;63.20
3172;DHT22;1597;51.572;6.992;2023-08-21T06:05:30;20.30;59.30
3172;DHT22;1597;51.572;6.992;2023-08-21T06:07:56;20.30;59.20
3172;DHT22;1597;51.572;6.992;2023-08-21T06:10:22;20.30;60.60
3172;DHT22;1597;51.572;6.992;2023-08-21T06:12:48;20.30;62.10
3172;DHT22;1597;51.572;6.992;2023-08-21T06:15:14;20.40;59.10
3172;DHT22;1597;51.572;6.992;2023-08-21T06:17:40;20.40;57.30
3172;DHT22;1597;51.572;6.992;2023-08-21T06:20:07;20.40;57.30
3172;DHT22;1597;51.572;6.992;2023-08-21T06:22:39;20.40;58.70
3172;DHT22;1597;51.572;6.992;2023-08-21T06:25:05;20.40;61.20
3172;DHT22;1597;51.572;6.992;2023-08-21T06:27:31;20.40;61.50
3172;DHT22;1597;51.572;6.992;2023-08-21T06:29:57;20.40;62.00
3172;DHT22;1597;51.572;6.992;2023-08-21T06:32:23;20.50;58.40
3172;DHT22;1597;51.572;6.992;2023-08-21T06:34:49;20.50;58.70
3172;DHT22;1597;51.572;6.992;2023-08-21T06:37:14;20.60;55.90
3172;DHT22;1597;51.572;6.992;2023-08-21T06:39:40;20.70;50.40
3172;DHT22;1597;51.572;6.992;2023-08-21T06:42:06;20.80;42.70
3172;DHT22;1597;51.572;6.992;2023-08-21T06:44:34;20.90;37.90
3172;DHT22;1597;51.572;6.992;2023-08-21T06:46:59;20.90;32.20
3172;DHT22;1597;51.572;6.992;2023-08-21T06:49:26;21.00;25.60
3172;DHT22;1597;51.572;6.992;2023-08-21T06:51:52;21.10;23.70
3172;DHT22;1597;51.572;6.992;2023-08-21T06:54:18;21.10;24.20
3172;DHT22;1597;51.572;6.992;2023-08-21T06:56:44;21.10;24.00
3172;DHT22;1597;51.572;6.992;2023-08-21T06:59:10;21.10;24.60
3172;DHT22;1597;51.572;6.992;2023-08-21T07:01:36;21.20;24.60
3172;DHT22;1597;51.572;6.992;2023-08-21T07:04:03;21.20;25.20
3172;DHT22;1597;51.572;6.992;2023-08-21T07:06:30;21.20;22.70
3172;DHT22;1597;51.572;6.992;2023-08-21T07:08:56;21.30;23.30
3172;DHT22;1597;51.572;6.992;2023-08-21T07:11:22;21.40;23.30
3172;DHT22;1597;51.572;6.992;2023-08-21T07:13:48;21.40;24.40
3172;DHT22;1597;51.572;6.992;2023-08-21T07:16:14;21.50;19.00
3172;DHT22;1597;51.572;6.992;2023-08-21T07:18:40;21.50;19.40
3172;DHT22;1597;51.572;6.992;2023-08-21T07:21:06;21.50;19.50
3172;DHT22;1597;51.572;6.992;2023-08-21T07:23:32;21.60;20.50
3172;DHT22;1597;51.572;6.992;2023-08-21T07:26:01;21.60;20.30
3172;DHT22;1597;51.572;6.992;2023-08-21T07:28:27;21.70;20.20
3172;DHT22;1597;51.572;6.992;2023-08-21T07:30:57;21.80;15.20
3172;DHT22;1597;51.572;6.992;2023-08-21T07:33:26;21.90;15.10
3172;DHT22;1597;51.572;6.992;2023-08-21T07:36:04;21.90;15.40
3172;DHT22;1597;51.572;6.992;2023-08-21T07:38:31;22.00;6.70
3172;DHT22;1597;51.572;6.992;2023-08-21T07:41:08;22.00;7.40
3172;DHT22;1597;51.572;6.992;2023-08-21T07:43:43;22.00;11.20
3172;DHT22;1597;51.572;6.992;2023-08-21T07:46:11;22.10;12.20
3172;DHT22;1597;51.572;6.992;2023-08-21T07:48:42;22.20;4.60
3172;DHT22;1597;51.572;6.992;2023-08-21T07:51:09;22.20;4.70
3172;DHT22;1597;51.572;6.992;2023-08-21T07:53:35;22.60;3.70
3172;DHT22;1597;51.572;6.992;2023-08-21T07:56:02;22.30;5.10
3172;DHT22;1597;51.572;6.992;2023-08-21T07:58:29;22.40;3.60
3172;DHT22;1597;51.572;6.992;2023-08-21T08:00:56;22.50;3.30
3172;DHT22;1597;51.572;6.992;2023-08-21T08:03:22;22.50;2.20
3172;DHT22;1597;51.572;6.992;2023-08-21T08:05:48;22.60;1.70
3172;DHT22;1597;51.572;6.992;2023-08-21T08:08:16;22.60;1.00
3172;DHT22;1597;51.572;6.992;2023-08-21T08:10:42;22.70;1.00
3172;DHT22;1597;51.572;6.992;2023-08-21T08:13:08;22.70;1.00
3172;DHT22;1597;51.572;6.992;2023-08-21T08:15:34;22.70;1.00
3172;DHT22;1597;51.572;6.992;2023-08-21T08:18:02;22.70;1.00
3172;DHT22;1597;51.572;6.992;2023-08-21T08:20:28;22.70;1.00
3172;DHT22;1597;51.572;6.992;2023-08-21T08:22:54;22.80;1.00
3172;DHT22;1597;51.572;6.992;2023-08-21T08:25:20;22.80;1.00
3172;DHT22;1597;51.572;6.992;2023-08-21T08:27:46;22.70;1.00
3172;DHT22;1597;51.572;6.992;2023-08-21T08:30:12;22.80;1.00
3172;DHT22;1597;51.572;6.992;2023-08-21T08:32:42;22.80;1.00
3172;DHT22;1597;51.572;6.992;2023-08-21T08:35:13;22.90;1.00
3172;DHT22;1597;51.572;6.992;2023-08-21T08:37:40;23.00;1.00
3172;DHT22;1597;51.572;6.992;2023-08-21T08:40:07;23.00;1.00
3172;DHT22;1597;51.572;6.992;2023-08-21T08:42:34;23.10;1.00
3172;DHT22;1597;51.572;6.992;2023-08-21T08:45:03;23.20;1.00
3172;DHT22;1597;51.572;6.992;2023-08-21T08:47:35;23.30;1.00
3172;DHT22;1597;51.572;6.992;2023-08-21T08:50:07;23.40;1.00
3172;DHT22;1597;51.572;6.992;2023-08-21T08:52:37;23.50;1.00
3172;DHT22;1597;51.572;6.992;2023-08-21T08:55:06;23.50;1.00
3172;DHT22;1597;51.572;6.992;2023-08-21T08:57:38;23.60;1.00
3172;DHT22;1597;51.572;6.992;2023-08-21T09:00:05;23.60;1.00
3172;DHT22;1597;51.572;6.992;2023-08-21T09:02:32;23.70;1.00
3172;DHT22;1597;51.572;6.992;2023-08-21T09:05:00;23.70;1.00
3172;DHT22;1597;51.572;6.992;2023-08-21T09:07:27;23.80;1.00
3172;DHT22;1597;51.572;6.992;2023-08-21T09:09:53;23.70;1.00
3172;DHT22;1597;51.572;6.992;2023-08-21T09:12:19;23.70;1.00
3172;DHT22;1597;51.572;6.992;2023-08-21T09:14:46;23.70;1.00
3172;DHT22;1597;51.572;6.992;2023-08-21T09:17:12;23.80;1.00
3172;DHT22;1597;51.572;6.992;2023-08-21T09:19:39;23.80;1.00
3172;DHT22;1597;51.572;6.992;2023-08-21T09:22:13;23.80;1.00
3172;DHT22;1597;51.572;6.992;2023-08-21T09:25:06;23.90;1.00
3172;DHT22;1597;51.572;6.992;2023-08-21T09:27:35;23.90;1.00
3172;DHT22;1597;51.572;6.992;2023-08-21T09:30:04;24.00;1.00
3172;DHT22;1597;51.572;6.992;2023-08-21T09:32:32;24.00;1.00
3172;DHT22;1597;51.572;6.992;2023-08-21T09:35:21;24.10;1.00
3172;DHT22;1597;51.572;6.992;2023-08-21T09:37:49;24.10;1.00
3172;DHT22;1597;51.572;6.992;2023-08-21T09:40:18;24.10;1.00
3172;DHT22;1597;51.572;6.992;2023-08-21T09:42:45;24.20;1.00
3172;DHT22;1597;51.572;6.992;2023-08-21T09:45:23;24.30;1.00
3172;DHT22;1597;51.572;6.992;2023-08-21T09:47:53;24.30;1.00
3172;DHT22;1597;51.572;6.992;2023-08-21T09:50:19;24.30;1.00
3172;DHT22;1597;51.572;6.992;2023-08-21T09:52:46;24.40;1.00
3172;DHT22;1597;51.572;6.992;2023-08-21T09:55:13;24.40;1.00
3172;DHT22;1597;51.572;6.992;2023-08-21T09:57:40;24.50;1.00
3172;DHT22;1597;51.572;6.992;2023-08-21T10:00:08;24.50;1.00
3172;DHT22;1597;51.572;6.992;2023-08-21T10:02:46;24.50;1.00
3172;DHT22;1597;51.572;6.992;2023-08-21T10:05:19;24.50;1.00
3172;DHT22;1597;51.572;6.992;2023-08-21T10:07:49;24.50;1.00
3172;DHT22;1597;51.572;6.992;2023-08-21T10:10:16;24.50;1.00
3172;DHT22;1597;51.572;6.992;2023-08-21T10:12:42;24.60;1.00
3172;DHT22;1597;51.572;6.992;2023-08-21T10:15:09;24.60;1.00
3172;DHT22;1597;51.572;6.992;2023-08-21T10:17:38;24.70;1.00
3172;DHT22;1597;51.572;6.992;2023-08-21T10:20:06;24.80;1.00
3172;DHT22;1597;51.572;6.992;2023-08-21T10:22:46;24.90;1.00
3172;DHT22;1597;51.572;6.992;2023-08-21T10:25:18;25.00;1.00
3172;DHT22;1597;51.572;6.992;2023-08-21T10:27:50;25.00;1.00
3172;DHT22;1597;51.572;6.992;2023-08-21T10:30:25;25.10;1.00
3172;DHT22;1597;51.572;6.992;2023-08-21T10:32:53;25.10;1.00
3172;DHT22;1597;51.572;6.992;2023-08-21T10:35:25;25.10;1.00
3172;DHT22;1597;51.572;6.992;2023-08-21T10:38:07;25.20;1.00
3172;DHT22;1597;51.572;6.992;2023-08-21T10:41:07;25.20;1.00
3172;DHT22;1597;51.572;6.992;2023-08-21T10:43:41;25.30;1.00
3172;DHT22;1597;51.572;6.992;2023-08-21T10:46:09;25.30;1.00
3172;DHT22;1597;51.572;6.992;2023-08-21T10:48:36;25.40;1.00
3172;DHT22;1597;51.572;6.992;2023-08-21T10:51:04;25.40;1.00
3172;DHT22;1597;51.572;6.992;2023-08-21T10:53:31;25.40;1.00
3172;DHT22;1597;51.572;6.992;2023-08-21T10:56:03;25.40;1.00
3172;DHT22;1597;51.572;6.992;2023-08-21T10:58:41;25.40;1.00
3172;DHT22;1597;51.572;6.992;2023-08-21T11:01:08;25.40;1.00
3172;DHT22;1597;51.572;6.992;2023-08-21T11:03:33;25.50;1.00
3172;DHT22;1597;51.572;6.992;2023-08-21T11:06:04;25.60;1.00
3172;DHT22;1597;51.572;6.992;2023-08-21T11:08:32;25.60;1.00
3172;DHT22;1597;51.572;6.992;2023-08-21T11:11:00;25.60;1.00
3172;DHT22;1597;51.572;6.992;2023-08-21T11:13:26;25.60;1.00
3172;DHT22;1597;51.572;6.992;2023-08-21T11:16:03;25.80;1.00
3172;DHT22;1597;51.572;6.992;2023-08-21T11:18:35;25.80;1.00
3172;DHT22;1597;51.572;6.992;2023-08-21T11:21:10;25.80;1.00
3172;DHT22;1597;51.572;6.992;2023-08-21T11:23:40;25.90;1.00
3172;DHT22;1597;51.572;6.992;2023-08-21T11:26:10;25.90;1.00
3172;DHT22;1597;51.572;6.992;2023-08-21T11:28:38;25.90;1.00
3172;DHT22;1597;51.572;6.992;2023-08-21T11:31:04;25.90;1.00
3172;DHT22;1597;51.572;6.992;2023-08-21T11:33:31;25.80;1.00
3172;DHT22;1597;51.572;6.992;2023-08-21T11:35:57;25.80;1.00
3172;DHT22;1597;51.572;6.992;2023-08-21T11:38:26;25.90;1.00
3172;DHT22;1597;51.572;6.992;2023-08-21T11:41:00;25.90;1.00
3172;DHT22;1597;51.572;6.992;2023-08-21T11:46:02;26.10;1.00
3172;DHT22;1597;51.572;6.992;2023-08-21T11:48:29;26.10;1.00
3172;DHT22;1597;51.572;6.992;2023-08-21T11:50:55;26.20;1.00
3172;DHT22;1597;51.572;6.992;2023-08-21T11:53:50;26.20;1.00
3172;DHT22;1597;51.572;6.992;2023-08-21T11:56:17;26.20;1.00
3172;DHT22;1597;51.572;6.992;2023-08-21T11:58:46;26.20;1.00
3172;DHT22;1597;51.572;6.992;2023-08-21T12:01:18;26.20;1.00
3172;DHT22;1597;51.572;6.992;2023-08-21T12:03:45;26.10;1.00
3172;DHT22;1597;51.572;6.992;2023-08-21T12:06:11;26.10;1.00
3172;DHT22;1597;51.572;6.992;2023-08-21T12:08:39;26.10;1.00
3172;DHT22;1597;51.572;6.992;2023-08-21T12:11:05;26.10;1.00
3172;DHT22;1597;51.572;6.992;2023-08-21T12:13:32;26.00;1.00
3172;DHT22;1597;51.572;6.992;2023-08-21T12:15:58;25.90;1.00
3172;DHT22;1597;51.572;6.992;2023-08-21T12:18:23;26.00;1.00
3172;DHT22;1597;51.572;6.992;2023-08-21T12:20:49;26.00;1.00
3172;DHT22;1597;51.572;6.992;2023-08-21T12:23:15;26.00;1.00
3172;DHT22;1597;51.572;6.992;2023-08-21T12:25:41;26.10;1.00
3172;DHT22;1597;51.572;6.992;2023-08-21T12:28:07;26.10;1.00
3172;DHT22;1597;51.572;6.992;2023-08-21T12:30:34;26.10;1.00
3172;DHT22;1597;51.572;6.992;2023-08-21T12:33:00;26.10;1.00
3172;DHT22;1597;51.572;6.992;2023-08-21T12:35:26;26.10;1.00
3172;DHT22;1597;51.572;6.992;2023-08-21T12:37:58;26.20;1.00
3172;DHT22;1597;51.572;6.992;2023-08-21T12:40:24;26.20;1.00
3172;DHT22;1597;51.572;6.992;2023-08-21T12:42:50;26.20;1.00
3172;DHT22;1597;51.572;6.992;2023-08-21T12:45:16;26.20;1.00
3172;DHT22;1597;51.572;6.992;2023-08-21T12:47:42;26.30;1.00
3172;DHT22;1597;51.572;6.992;2023-08-21T12:50:09;26.30;1.00
3172;DHT22;1597;51.572;6.992;2023-08-21T12:52:35;26.30;1.00
3172;DHT22;1597;51.572;6.992;2023-08-21T12:55:01;26.30;1.00
3172;DHT22;1597;51.572;6.992;2023-08-21T12:57:31;26.40;1.00
3172;DHT22;1597;51.572;6.992;2023-08-21T12:59:57;26.50;1.00
3172;DHT22;1597;51.572;6.992;2023-08-21T13:02:22;26.50;1.00
3172;DHT22;1597;51.572;6.992;2023-08-21T13:04:49;26.60;1.00
3172;DHT22;1597;51.572;6.992;2023-08-21T13:07:15;26.70;1.00
3172;DHT22;1597;51.572;6.992;2023-08-21T13:09:41;26.60;1.00
3172;DHT22;1597;51.572;6.992;2023-08-21T13:12:07;26.60;1.00
3172;DHT22;1597;51.572;6.992;2023-08-21T13:14:34;26.60;1.00
3172;DHT22;1597;51.572;6.992;2023-08-21T13:17:01;26.70;1.00
3172;DHT22;1597;51.572;6.992;2023-08-21T13:19:27;26.70;1.00
3172;DHT22;1597;51.572;6.992;2023-08-21T13:21:54;26.70;1.00
3172;DHT22;1597;51.572;6.992;2023-08-21T13:24:20;26.50;1.00
3172;DHT22;1597;51.572;6.992;2023-08-21T13:26:47;26.40;1.00
3172;DHT22;1597;51.572;6.992;2023-08-21T13:29:13;26.30;1.00
3172;DHT22;1597;51.572;6.992;2023-08-21T13:31:39;26.20;1.00
3172;DHT22;1597;51.572;6.992;2023-08-21T13:34:05;26.30;1.00
3172;DHT22;1597;51.572;6.992;2023-08-21T13:36:30;26.30;1.00
3172;DHT22;1597;51.572;6.992;2023-08-21T13:38:56;26.40;1.00
3172;DHT22;1597;51.572;6.992;2023-08-21T13:41:22;26.60;1.00
3172;DHT22;1597;51.572;6.992;2023-08-21T13:43:48;26.70;1.00
3172;DHT22;1597;51.572;6.992;2023-08-21T13:46:14;26.80;1.00
3172;DHT22;1597;51.572;6.992;2023-08-21T13:48:42;26.80;1.00
3172;DHT22;1597;51.572;6.992;2023-08-21T13:51:10;26.90;1.00
3172;DHT22;1597;51.572;6.992;2023-08-21T13:53:36;26.80;1.00
3172;DHT22;1597;51.572;6.992;2023-08-21T13:56:01;26.90;1.00
3172;DHT22;1597;51.572;6.992;2023-08-21T13:58:27;26.90;1.00
3172;DHT22;1597;51.572;6.992;2023-08-21T14:00:53;26.80;1.00
3172;DHT22;1597;51.572;6.992;2023-08-21T14:03:21;26.80;1.00
3172;DHT22;1597;51.572;6.992;2023-08-21T14:05:47;26.90;1.00
3172;DHT22;1597;51.572;6.992;2023-08-21T14:08:12;26.90;1.00
3172;DHT22;1597;51.572;6.992;2023-08-21T14:10:38;27.00;1.00
3172;DHT22;1597;51.572;6.992;2023-08-21T14:13:04;26.90;1.00
3172;DHT22;1597;51.572;6.992;2023-08-21T14:15:33;26.80;1.00
3172;DHT22;1597;51.572;6.992;2023-08-21T14:18:00;26.70;1.00
3172;DHT22;1597;51.572;6.992;2023-08-21T14:20:25;26.60;1.00
3172;DHT22;1597;51.572;6.992;2023-08-21T14:22:53;26.60;1.00
3172;DHT22;1597;51.572;6.992;2023-08-21T14:25:21;26.60;1.00
3172;DHT22;1597;51.572;6.992;2023-08-21T14:27:47;26.60;1.00
3172;DHT22;1597;51.572;6.992;2023-08-21T14:30:14;26.70;1.00
3172;DHT22;1597;51.572;6.992;2023-08-21T14:32:41;26.70;1.00
3172;DHT22;1597;51.572;6.992;2023-08-21T14:35:08;26.70;1.00
3172;DHT22;1597;51.572;6.992;2023-08-21T14:37:35;26.70;1.00
3172;DHT22;1597;51.572;6.992;2023-08-21T14:40:01;26.70;1.00
3172;DHT22;1597;51.572;6.992;2023-08-21T14:42:33;26.70;1.00
3172;DHT22;1597;51.572;6.992;2023-08-21T14:44:59;26.60;1.00
3172;DHT22;1597;51.572;6.992;2023-08-21T14:47:25;26.60;1.00
3172;DHT22;1597;51.572;6.992;2023-08-21T14:49:51;26.50;1.00
3172;DHT22;1597;51.572;6.992;2023-08-21T14:52:17;26.40;1.00
3172;DHT22;1597;51.572;6.992;2023-08-21T14:54:43;26.50;1.00
3172;DHT22;1597;51.572;6.992;2023-08-21T14:57:08;26.40;1.00
3172;DHT22;1597;51.572;6.992;2023-08-21T14:59:34;26.40;1.00
3172;DHT22;1597;51.572;6.992;2023-08-21T15:02:00;26.30;1.00
3172;DHT22;1597;51.572;6.992;2023-08-21T15:04:26;26.30;1.00
3172;DHT22;1597;51.572;6.992;2023-08-21T15:06:52;26.20;1.00
3172;DHT22;1597;51.572;6.992;2023-08-21T15:09:18;26.20;1.00
3172;DHT22;1597;51.572;6.992;2023-08-21T15:11:44;26.30;1.00
3172;DHT22;1597;51.572;6.992;2023-08-21T15:14:10;26.30;1.00
3172;DHT22;1597;51.572;6.992;2023-08-21T15:16:37;26.40;1.00
3172;DHT22;1597;51.572;6.992;2023-08-21T15:19:03;26.40;1.00
3172;DHT22;1597;51.572;6.992;2023-08-21T15:21:29;26.40;1.00
3172;DHT22;1597;51.572;6.992;2023-08-21T15:23:55;26.50;1.00
3172;DHT22;1597;51.572;6.992;2023-08-21T15:26:21;26.50;1.00
3172;DHT22;1597;51.572;6.992;2023-08-21T15:28:47;26.50;1.00
3172;DHT22;1597;51.572;6.992;2023-08-21T15:31:13;26.60;1.00
3172;DHT22;1597;51.572;6.992;2023-08-21T15:33:39;26.70;1.00
3172;DHT22;1597;51.572;6.992;2023-08-21T15:36:05;26.70;1.00
3172;DHT22;1597;51.572;6.992;2023-08-21T15:38:31;26.70;1.00
3172;DHT22;1597;51.572;6.992;2023-08-21T15:40:57;26.70;1.00
3172;DHT22;1597;51.572;6.992;2023-08-21T15:43:23;26.60;1.00
3172;DHT22;1597;51.572;6.992;2023-08-21T15:45:49;26.60;1.00
3172;DHT22;1597;51.572;6.992;2023-08-21T15:48:16;26.50;1.00
3172;DHT22;1597;51.572;6.992;2023-08-21T15:50:42;26.50;1.00
3172;DHT22;1597;51.572;6.992;2023-08-21T15:53:08;26.50;1.00
3172;DHT22;1597;51.572;6.992;2023-08-21T15:55:34;26.50;1.00
3172;DHT22;1597;51.572;6.992;2023-08-21T15:58:00;26.40;1.00
3172;DHT22;1597;51.572;6.992;2023-08-21T16:00:26;26.40;1.00
3172;DHT22;1597;51.572;6.992;2023-08-21T16:02:52;26.30;1.00
3172;DHT22;1597;51.572;6.992;2023-08-21T16:05:19;26.40;1.00
3172;DHT22;1597;51.572;6.992;2023-08-21T16:07:48;26.30;1.00
3172;DHT22;1597;51.572;6.992;2023-08-21T16:10:14;26.80;1.00
3172;DHT22;1597;51.572;6.992;2023-08-21T16:12:40;26.30;1.00
3172;DHT22;1597;51.572;6.992;2023-08-21T16:15:07;26.20;1.00
3172;DHT22;1597;51.572;6.992;2023-08-21T16:17:33;26.20;1.00